Time;durP1;ratioP1;P1;durP2;ratioP2;P2;SDS_P1;SDS_P2;PMS_P1;PMS_P2;Temp;Humidity;BMP_temperature;BMP_pressure;BME280_temperature;BME280_humidity;BME280_pressure;Samples;Min_cycle;Max_cycle;Signal;HPM_P1;HPM_P2
2021/09/28 00:02:06;;;;;;;6.53;2.70;;;15.40;99.90;;;;;;2632104;54;20150;-81
2021/09/28 00:07:07;;;;;;;5.45;2.55;;;15.30;99.90;;;;;;2631568;54;20161;-82
2021/09/28 00:09:36;;;;;;;6.78;2.90;;;15.40;99.90;;;;;;2631811;54;20168;-81
2021/09/28 00:12:05;;;;;;;4.90;2.60;;;15.30;99.90;;;;;;2631441;54;20224;-82
2021/09/28 00:17:10;;;;;;;8.05;3.00;;;15.50;99.90;;;;;;2632304;54;20149;-82
2021/09/28 00:24:59;;;;;;;5.50;3.10;;;15.40;99.90;;;;;;2631610;54;20149;-82
2021/09/28 00:27:29;;;;;;;3.90;3.00;;;15.30;99.90;;;;;;2631586;47;20185;-83
2021/09/28 00:29:58;;;;;;;8.88;2.90;;;15.20;99.90;;;;;;2631755;54;20176;-81
2021/09/28 00:35:11;;;;;;;3.47;2.90;;;15.20;99.90;;;;;;2641478;39;20793;-80
2021/09/28 00:37:40;;;;;;;6.10;2.63;;;15.00;99.90;;;;;;2631545;54;20196;-82
2021/09/28 00:40:10;;;;;;;8.00;3.92;;;15.00;99.90;;;;;;2628326;46;20220;-76
2021/09/28 00:47:46;;;;;;;5.80;2.83;;;14.90;99.90;;;;;;2631386;54;20169;-82
2021/09/28 00:50:29;;;;;;;10.73;3.15;;;14.80;99.90;;;;;;2630350;47;20129;-79
2021/09/28 00:53:03;;;;;;;11.93;2.75;;;14.90;99.90;;;;;;2631547;54;20145;-81
2021/09/28 00:55:33;;;;;;;5.75;3.15;;;14.90;99.90;;;;;;2629018;46;20248;-81
2021/09/28 00:58:08;;;;;;;7.13;3.03;;;14.90;99.90;;;;;;2631651;47;20137;-79
2021/09/28 01:03:24;;;;;;;4.18;2.55;;;14.80;99.90;;;;;;2631634;54;20126;-80
2021/09/28 01:05:53;;;;;;;5.28;3.25;;;14.80;99.90;;;;;;2632214;46;20149;-81
2021/09/28 01:08:25;;;;;;;4.05;2.58;;;14.80;99.90;;;;;;2631678;46;20221;-81
2021/09/28 01:10:54;;;;;;;10.73;3.50;;;14.70;99.90;;;;;;2631328;54;20169;-78
2021/09/28 01:13:24;;;;;;;6.45;3.17;;;14.70;99.90;;;;;;2631682;46;20204;-81
2021/09/28 01:16:11;;;;;;;4.45;3.17;;;14.70;99.90;;;;;;2630726;46;20213;-83
2021/09/28 01:18:43;;;;;;;8.48;2.92;;;14.70;99.90;;;;;;2630578;54;20173;-81
2021/09/28 01:21:17;;;;;;;6.55;3.05;;;14.80;99.90;;;;;;2631065;54;20193;-77
2021/09/28 01:23:47;;;;;;;9.80;3.30;;;14.60;99.90;;;;;;2631001;46;20152;-79
2021/09/28 01:26:23;;;;;;;2.92;2.20;;;14.50;99.90;;;;;;2635898;39;20404;-79
2021/09/28 01:28:52;;;;;;;6.32;2.85;;;14.60;99.90;;;;;;2630785;47;20139;-80
2021/09/28 01:31:23;;;;;;;6.72;3.33;;;14.60;99.90;;;;;;2630917;47;20150;-79
2021/09/28 01:33:52;;;;;;;8.45;3.00;;;14.50;99.90;;;;;;2634121;39;21004;-78
2021/09/28 01:36:24;;;;;;;4.57;3.03;;;14.60;99.90;;;;;;2630771;54;20188;-78
2021/09/28 01:38:52;;;;;;;4.60;3.05;;;14.60;99.90;;;;;;2630406;46;20137;-78
2021/09/28 01:41:21;;;;;;;8.32;2.92;;;14.40;99.90;;;;;;2630985;46;20159;-79
2021/09/28 01:43:50;;;;;;;10.50;2.83;;;14.30;99.90;;;;;;2631096;46;20218;-79
2021/09/28 01:46:19;;;;;;;4.07;2.53;;;14.30;99.90;;;;;;2632969;46;20206;-79
2021/09/28 01:48:54;;;;;;;5.43;2.53;;;14.40;99.90;;;;;;2630459;54;20168;-79
2021/09/28 01:51:25;;;;;;;8.25;3.20;;;14.40;99.90;;;;;;2630917;47;20144;-79
2021/09/28 01:53:54;;;;;;;3.83;2.50;;;14.30;99.90;;;;;;2630553;54;20145;-78
2021/09/28 01:56:25;;;;;;;3.65;2.72;;;14.20;99.90;;;;;;2630891;54;20179;-78
2021/09/28 01:58:54;;;;;;;5.75;2.88;;;14.30;99.90;;;;;;2630516;47;20198;-79
2021/09/28 02:01:24;;;;;;;5.45;2.63;;;14.20;99.90;;;;;;2630866;47;20153;-79
2021/09/28 02:03:53;;;;;;;5.07;2.58;;;14.00;99.90;;;;;;2630821;47;20153;-80
2021/09/28 02:06:26;;;;;;;2.72;2.30;;;14.00;99.90;;;;;;2630882;47;20173;-79
2021/09/28 02:08:55;;;;;;;5.45;2.92;;;14.00;99.90;;;;;;2630756;54;20147;-79
2021/09/28 02:11:23;;;;;;;6.65;2.70;;;14.10;99.90;;;;;;2630835;47;20152;-78
2021/09/28 02:13:53;;;;;;;5.05;3.03;;;14.00;99.90;;;;;;2634018;39;20841;-79
2021/09/28 02:16:22;;;;;;;5.20;3.00;;;13.90;99.90;;;;;;2630830;47;20962;-79
2021/09/28 02:18:51;;;;;;;4.10;3.72;;;14.00;99.90;;;;;;2630627;47;20132;-79
2021/09/28 02:21:20;;;;;;;6.80;3.00;;;13.80;99.90;;;;;;2630981;47;20152;-79
2021/09/28 02:23:51;;;;;;;7.95;3.50;;;13.90;99.90;;;;;;2629160;54;20181;-78
2021/09/28 02:26:20;;;;;;;4.07;3.40;;;13.80;99.90;;;;;;2630718;54;20169;-78
2021/09/28 02:28:49;;;;;;;4.93;3.83;;;13.80;99.90;;;;;;2630486;47;20193;-79
2021/09/28 02:31:18;;;;;;;5.53;4.63;;;13.90;99.90;;;;;;2630777;47;20144;-80
2021/09/28 02:33:47;;;;;;;5.35;3.88;;;13.90;99.90;;;;;;2632644;46;20169;-78
2021/09/28 02:36:15;;;;;;;8.63;3.97;;;13.80;99.90;;;;;;2630689;47;20220;-78
2021/09/28 02:38:44;;;;;;;5.43;3.65;;;13.70;99.90;;;;;;2631215;39;20921;-80
2021/09/28 02:41:16;;;;;;;6.93;4.13;;;13.70;99.90;;;;;;2630797;47;20201;-80
2021/09/28 02:43:45;;;;;;;9.27;4.30;;;13.80;99.90;;;;;;2630553;47;20164;-78
2021/09/28 02:46:13;;;;;;;5.70;3.53;;;13.70;99.90;;;;;;2630666;54;20960;-79
2021/09/28 02:48:42;;;;;;;4.45;4.05;;;13.90;99.90;;;;;;2630478;54;20136;-78
2021/09/28 02:51:11;;;;;;;4.47;4.10;;;13.90;99.90;;;;;;2630716;47;20138;-78
2021/09/28 02:53:40;;;;;;;6.25;3.90;;;13.80;99.90;;;;;;2630621;54;20164;-79
2021/09/28 02:56:09;;;;;;;6.35;4.13;;;13.80;99.90;;;;;;2630611;47;20165;-79
2021/09/28 02:58:40;;;;;;;6.05;3.50;;;13.70;99.90;;;;;;2630536;47;20144;-79
2021/09/28 03:01:09;;;;;;;8.48;3.67;;;13.70;99.90;;;;;;2630475;54;20149;-78
2021/09/28 03:03:38;;;;;;;6.85;4.07;;;13.80;99.90;;;;;;2630618;47;20160;-78
2021/09/28 03:06:08;;;;;;;5.72;3.25;;;13.70;99.90;;;;;;2636562;39;21000;-79
2021/09/28 03:08:36;;;;;;;11.23;4.05;;;13.70;99.90;;;;;;2630407;47;20149;-79
2021/09/28 03:11:05;;;;;;;4.07;3.05;;;13.70;99.90;;;;;;2630520;47;20160;-80
2021/09/28 03:13:34;;;;;;;3.83;3.50;;;13.70;99.90;;;;;;2630487;54;20138;-80
2021/09/28 03:16:06;;;;;;;4.57;3.22;;;13.50;99.90;;;;;;2630279;54;20189;-79
2021/09/28 03:18:35;;;;;;;10.93;4.40;;;13.40;99.90;;;;;;2630191;47;20156;-78
2021/09/28 03:21:04;;;;;;;4.07;3.40;;;13.50;99.90;;;;;;2630328;47;20159;-79
2021/09/28 03:23:33;;;;;;;6.80;3.83;;;13.50;99.90;;;;;;2630705;47;20145;-79
2021/09/28 03:26:02;;;;;;;4.95;3.35;;;13.50;99.90;;;;;;2631296;47;20181;-79
2021/09/28 03:28:32;;;;;;;6.88;3.78;;;13.30;99.90;;;;;;2631142;47;20161;-79
2021/09/28 03:31:01;;;;;;;5.60;4.20;;;13.50;99.90;;;;;;2631260;54;20183;-80
2021/09/28 03:33:32;;;;;;;3.40;3.10;;;13.40;99.90;;;;;;2631412;54;20144;-78
2021/09/28 03:36:02;;;;;;;5.30;3.35;;;13.40;99.90;;;;;;2631361;46;20157;-79
2021/09/28 03:38:30;;;;;;;4.82;3.38;;;13.40;99.90;;;;;;2631262;47;20153;-79
2021/09/28 03:40:59;;;;;;;4.18;3.33;;;13.20;99.90;;;;;;2631306;47;20161;-79
2021/09/28 03:43:29;;;;;;;3.47;3.13;;;13.20;99.90;;;;;;2631376;46;20912;-80
2021/09/28 03:45:57;;;;;;;3.95;3.65;;;13.10;99.90;;;;;;2631193;54;20180;-80
2021/09/28 03:48:26;;;;;;;6.82;4.22;;;13.00;99.90;;;;;;2631166;54;20197;-79
2021/09/28 03:50:58;;;;;;;9.07;3.88;;;13.10;99.90;;;;;;2631372;47;21027;-79
2021/09/28 03:53:27;;;;;;;5.30;3.58;;;13.10;99.90;;;;;;2634328;39;20926;-78
2021/09/28 03:55:56;;;;;;;5.75;3.15;;;13.10;99.90;;;;;;2631354;47;20254;-79
2021/09/28 03:58:24;;;;;;;4.50;3.72;;;13.30;99.90;;;;;;2631215;47;20158;-79
2021/09/28 04:00:53;;;;;;;4.05;3.70;;;13.20;99.90;;;;;;2631101;47;20248;-80
2021/09/28 04:03:22;;;;;;;4.38;3.97;;;13.20;99.90;;;;;;2631317;46;20167;-79
2021/09/28 04:05:51;;;;;;;5.32;4.05;;;13.00;99.90;;;;;;2631193;47;20238;-79
2021/09/28 04:08:22;;;;;;;6.22;4.25;;;12.90;99.90;;;;;;2631049;47;20900;-79
2021/09/28 04:10:51;;;;;;;4.93;3.72;;;12.80;99.90;;;;;;2631163;46;20133;-79
2021/09/28 04:13:20;;;;;;;7.53;4.53;;;13.00;99.90;;;;;;2631264;47;20139;-79
2021/09/28 04:15:49;;;;;;;6.75;4.30;;;13.10;99.90;;;;;;2631081;47;20206;-79
2021/09/28 04:18:18;;;;;;;7.45;4.25;;;13.30;99.90;;;;;;2631035;47;20246;-78
2021/09/28 04:20:48;;;;;;;5.15;3.97;;;13.30;99.90;;;;;;2631455;46;20126;-79
2021/09/28 04:23:17;;;;;;;7.78;4.25;;;13.40;99.90;;;;;;2631133;47;20141;-78
2021/09/28 04:25:49;;;;;;;7.43;4.50;;;13.50;99.90;;;;;;2631198;47;20228;-80
2021/09/28 04:28:18;;;;;;;7.07;5.43;;;13.40;99.90;;;;;;2631132;47;21058;-80
2021/09/28 04:30:47;;;;;;;4.45;4.05;;;13.40;99.90;;;;;;2629908;54;20209;-78
2021/09/28 04:33:16;;;;;;;6.22;5.00;;;13.40;99.90;;;;;;2630916;47;20169;-78
2021/09/28 04:35:45;;;;;;;7.95;5.60;;;13.60;99.90;;;;;;2630919;46;20220;-78
2021/09/28 04:38:14;;;;;;;8.25;5.05;;;13.50;99.90;;;;;;2630971;46;20149;-79
2021/09/28 04:40:43;;;;;;;6.70;5.15;;;13.20;99.90;;;;;;2631202;54;20184;-79
2021/09/28 04:43:15;;;;;;;6.15;5.25;;;13.00;99.90;;;;;;2631119;46;20201;-80
2021/09/28 04:45:44;;;;;;;8.32;5.63;;;13.10;99.90;;;;;;2631002;54;20173;-78
2021/09/28 04:48:13;;;;;;;9.75;6.18;;;13.30;99.90;;;;;;2631039;46;20193;-79
2021/09/28 04:50:42;;;;;;;9.05;6.78;;;13.30;99.90;;;;;;2630834;47;20221;-79
2021/09/28 04:53:11;;;;;;;9.75;6.93;;;13.10;99.90;;;;;;2631031;47;20154;-79
2021/09/28 04:55:40;;;;;;;8.30;7.50;;;13.10;99.90;;;;;;2631142;47;20217;-78
2021/09/28 04:58:08;;;;;;;9.63;7.82;;;12.90;99.90;;;;;;2630862;47;20141;-78
2021/09/28 05:00:40;;;;;;;8.45;7.60;;;12.90;99.90;;;;;;2631750;39;20222;-79
2021/09/28 05:03:09;;;;;;;11.90;9.40;;;12.80;99.90;;;;;;2630926;47;20161;-78
2021/09/28 05:05:38;;;;;;;12.20;8.30;;;12.70;99.90;;;;;;2631041;46;20185;-78
2021/09/28 05:08:08;;;;;;;9.10;8.25;;;12.80;99.90;;;;;;2630908;46;20213;-79
2021/09/28 05:10:36;;;;;;;13.48;12.05;;;13.00;99.90;;;;;;2630711;46;20186;-79
2021/09/28 05:13:06;;;;;;;11.52;10.35;;;13.20;99.90;;;;;;2630915;54;20157;-79
2021/09/28 05:15:34;;;;;;;12.43;11.27;;;13.20;99.90;;;;;;2630884;54;20191;-80
2021/09/28 05:18:06;;;;;;;10.63;9.68;;;13.50;99.90;;;;;;2630812;47;20476;-79
2021/09/28 05:20:35;;;;;;;8.52;7.72;;;13.70;99.90;;;;;;2631057;46;20169;-79
2021/09/28 05:23:04;;;;;;;9.07;8.18;;;13.70;99.90;;;;;;2631042;46;20143;-79
2021/09/28 05:25:33;;;;;;;10.07;9.05;;;13.40;99.90;;;;;;2630870;47;20177;-78
2021/09/28 05:28:02;;;;;;;9.00;8.10;;;13.00;99.90;;;;;;2630528;46;20152;-78
2021/09/28 05:30:31;;;;;;;8.50;7.65;;;12.90;99.90;;;;;;2630999;54;20137;-80
2021/09/28 05:32:59;;;;;;;9.95;9.05;;;13.10;99.90;;;;;;2631049;47;20209;-79
2021/09/28 05:35:31;;;;;;;10.13;8.73;;;13.00;99.90;;;;;;2630937;46;20205;-79
2021/09/28 05:38:00;;;;;;;9.98;9.07;;;13.10;99.90;;;;;;2630941;46;20130;-79
2021/09/28 05:40:29;;;;;;;9.82;8.90;;;12.90;99.90;;;;;;2630841;54;20209;-78
2021/09/28 05:42:58;;;;;;;11.77;8.65;;;12.90;99.90;;;;;;2630890;47;20177;-78
2021/09/28 05:45:26;;;;;;;11.18;8.77;;;12.90;99.90;;;;;;2630617;47;20920;-80
2021/09/28 05:47:55;;;;;;;11.93;8.85;;;12.90;99.90;;;;;;2630301;54;20157;-80
2021/09/28 05:50:26;;;;;;;11.15;10.02;;;12.70;99.90;;;;;;2630895;47;20141;-79
2021/09/28 05:52:58;;;;;;;10.38;9.02;;;12.90;99.90;;;;;;2630830;47;20257;-79
2021/09/28 05:55:27;;;;;;;13.73;10.25;;;13.00;99.90;;;;;;2630879;47;20161;-79
2021/09/28 05:57:56;;;;;;;12.30;10.98;;;13.00;99.90;;;;;;2630830;47;20189;-79
2021/09/28 06:00:25;;;;;;;12.95;11.55;;;13.00;99.90;;;;;;2630913;46;20143;-79
2021/09/28 06:02:54;;;;;;;12.55;10.88;;;13.00;99.90;;;;;;2630855;47;20161;-79
2021/09/28 06:05:23;;;;;;;14.02;12.60;;;12.90;99.90;;;;;;2630785;54;20172;-79
2021/09/28 06:07:52;;;;;;;15.68;12.45;;;12.90;99.90;;;;;;2630568;54;21057;-79
2021/09/28 06:10:24;;;;;;;21.23;14.10;;;13.00;99.90;;;;;;2630814;54;21134;-79
2021/09/28 06:12:52;;;;;;;14.43;12.77;;;12.90;99.90;;;;;;2630884;46;20153;-79
2021/09/28 06:15:21;;;;;;;14.75;13.27;;;12.90;99.90;;;;;;2630598;47;20125;-78
2021/09/28 06:17:50;;;;;;;19.33;15.43;;;13.00;99.90;;;;;;2630551;47;20164;-78
2021/09/28 06:20:19;;;;;;;18.02;14.02;;;13.00;99.90;;;;;;2630776;46;20188;-79
2021/09/28 06:22:48;;;;;;;16.23;14.32;;;13.00;99.90;;;;;;2630617;47;20336;-79
2021/09/28 06:25:16;;;;;;;17.27;14.13;;;13.00;99.90;;;;;;2630781;54;20201;-80
2021/09/28 06:27:48;;;;;;;15.52;13.05;;;13.20;99.90;;;;;;2630279;54;20172;-79
2021/09/28 06:30:17;;;;;;;15.48;13.27;;;13.20;99.90;;;;;;2630908;46;20172;-79
2021/09/28 06:32:46;;;;;;;19.15;12.77;;;13.10;99.90;;;;;;2630712;47;20208;-79
2021/09/28 06:35:15;;;;;;;15.48;14.00;;;13.10;99.90;;;;;;2630695;47;20148;-78
2021/09/28 06:37:44;;;;;;;15.27;13.68;;;13.40;99.90;;;;;;2630589;47;20183;-79
2021/09/28 06:40:14;;;;;;;19.38;15.13;;;13.40;99.90;;;;;;2630721;54;20224;-79
2021/09/28 06:42:42;;;;;;;17.55;15.45;;;13.50;99.90;;;;;;2630476;47;20267;-79
2021/09/28 06:45:14;;;;;;;19.80;16.60;;;13.60;99.90;;;;;;2630689;47;20144;-80
2021/09/28 06:47:43;;;;;;;17.70;15.68;;;13.60;99.90;;;;;;2630220;47;20141;-79
2021/09/28 06:50:13;;;;;;;20.73;16.77;;;13.60;99.90;;;;;;2631783;39;21003;-79
2021/09/28 06:52:42;;;;;;;25.83;18.77;;;13.60;99.90;;;;;;2630644;47;20167;-79
2021/09/28 06:55:12;;;;;;;19.15;16.30;;;13.60;99.90;;;;;;2630600;47;20152;-79
2021/09/28 06:57:41;;;;;;;21.40;18.08;;;13.70;99.90;;;;;;2630324;47;20213;-77
2021/09/28 07:00:11;;;;;;;18.38;15.77;;;13.90;99.90;;;;;;2630404;47;20213;-78
2021/09/28 07:02:42;;;;;;;22.50;17.00;;;14.10;99.90;;;;;;2630688;47;20157;-76
2021/09/28 07:05:15;;;;;;;20.38;16.92;;;14.20;99.90;;;;;;2630513;39;21053;-76
2021/09/28 07:07:44;;;;;;;24.05;16.50;;;14.30;99.90;;;;;;2630088;47;20153;-77
2021/09/28 07:10:13;;;;;;;22.13;17.55;;;14.30;99.90;;;;;;2630042;47;20153;-78
2021/09/28 07:12:42;;;;;;;23.83;19.48;;;14.20;99.90;;;;;;2627673;47;20279;-79
2021/09/28 07:15:16;;;;;;;26.70;18.95;;;14.30;99.90;;;;;;2628640;47;20161;-79
2021/09/28 07:17:48;;;;;;;26.70;19.50;;;14.40;99.90;;;;;;2616729;47;20342;-39
2021/09/28 07:20:17;;;;;;;22.63;17.85;;;14.20;99.90;;;;;;2615138;54;20156;-40
2021/09/28 07:22:46;;;;;;;33.97;23.13;;;14.30;99.90;;;;;;2613936;54;20244;-41
2021/09/28 07:25:15;;;;;;;24.00;19.55;;;14.50;99.90;;;;;;2614085;54;20157;-39
2021/09/28 07:27:44;;;;;;;34.17;25.27;;;14.50;99.90;;;;;;2614342;54;20681;-39
2021/09/28 07:30:14;;;;;;;39.90;28.08;;;14.50;99.90;;;;;;2616190;39;20624;-41
2021/09/28 07:32:43;;;;;;;31.75;25.35;;;14.60;99.90;;;;;;2615538;54;21001;-39
2021/09/28 07:35:15;;;;;;;33.92;24.95;;;14.50;99.90;;;;;;2616448;47;20750;-41
2021/09/28 07:37:44;;;;;;;32.60;24.77;;;14.50;99.90;;;;;;2616068;54;20156;-40
2021/09/28 07:40:14;;;;;;;36.50;26.30;;;14.40;99.90;;;;;;2615309;54;20153;-39
2021/09/28 07:42:42;;;;;;;37.03;26.73;;;14.50;99.90;;;;;;2616044;54;20169;-39
2021/09/28 07:45:12;;;;;;;49.50;29.30;;;14.40;99.90;;;;;;2616448;54;20145;-40
2021/09/28 07:47:40;;;;;;;38.45;28.60;;;14.40;99.90;;;;;;2615945;47;20157;-39
2021/09/28 07:50:12;;;;;;;42.33;29.40;;;14.40;99.90;;;;;;2615985;47;20152;-39
2021/09/28 07:52:43;;;;;;;44.22;30.30;;;14.50;99.90;;;;;;2615421;54;20189;-39
2021/09/28 07:55:13;;;;;;;39.83;30.15;;;14.40;99.90;;;;;;2615947;39;20432;-38
2021/09/28 07:57:42;;;;;;;47.38;30.05;;;14.30;99.90;;;;;;2615299;54;20168;-38
2021/09/28 08:00:12;;;;;;;46.20;33.30;;;14.40;99.90;;;;;;2615927;54;20144;-40
2021/09/28 08:02:44;;;;;;;42.90;29.73;;;14.30;99.90;;;;;;2615566;54;20200;-39
2021/09/28 08:05:14;;;;;;;41.05;28.95;;;14.30;99.90;;;;;;2615961;39;20550;-39
2021/09/28 08:07:45;;;;;;;43.78;29.67;;;14.20;99.90;;;;;;2615738;54;20153;-39
2021/09/28 08:10:16;;;;;;;44.78;30.50;;;14.30;99.90;;;;;;2615186;54;20163;-38
2021/09/28 08:12:46;;;;;;;45.03;29.73;;;14.40;99.90;;;;;;2616465;54;20203;-39
2021/09/28 08:15:15;;;;;;;51.22;27.95;;;14.40;99.90;;;;;;2616795;54;20188;-39
2021/09/28 08:17:44;;;;;;;45.85;31.48;;;14.40;99.90;;;;;;2616449;54;20153;-39
2021/09/28 08:20:16;;;;;;;41.67;29.10;;;14.30;99.90;;;;;;2616379;54;20160;-39
2021/09/28 08:22:48;;;;;;;51.38;32.38;;;14.40;99.90;;;;;;2616159;54;20188;-41
2021/09/28 08:25:20;;;;;;;39.70;28.05;;;14.60;99.90;;;;;;2616593;54;20163;-39
2021/09/28 08:30:31;;;;;;;45.22;28.52;;;14.50;99.90;;;;;;2617076;39;20631;-39
2021/09/28 08:33:00;;;;;;;43.67;30.15;;;14.50;99.90;;;;;;2617200;54;20146;-39
2021/09/28 08:35:29;;;;;;;39.47;28.83;;;14.50;99.90;;;;;;2617203;54;20158;-39
2021/09/28 08:38:00;;;;;;;40.90;29.40;;;14.40;99.90;;;;;;2616661;51;20159;-40
2021/09/28 08:40:29;;;;;;;45.00;29.17;;;14.30;99.90;;;;;;2616618;54;20153;-40
2021/09/28 08:42:58;;;;;;;43.15;31.35;;;14.50;99.90;;;;;;2616907;54;20148;-40
2021/09/28 08:45:27;;;;;;;39.38;29.75;;;14.50;99.90;;;;;;2616234;54;20133;-39
2021/09/28 08:47:56;;;;;;;45.08;28.58;;;14.70;99.90;;;;;;2616295;47;20144;-40
2021/09/28 08:50:25;;;;;;;40.42;29.33;;;14.70;99.90;;;;;;2615847;54;20149;-38
2021/09/28 08:52:55;;;;;;;41.13;29.30;;;14.90;99.90;;;;;;2616690;54;20184;-39
2021/09/28 08:55:26;;;;;;;40.75;29.77;;;14.90;99.90;;;;;;2616465;47;20145;-38
2021/09/28 08:58:14;;;;;;;41.10;27.48;;;14.90;99.90;;;;;;2616326;47;20148;-39
2021/09/28 09:00:44;;;;;;;37.75;29.70;;;15.20;99.90;;;;;;2616459;54;20713;-39
2021/09/28 09:03:27;;;;;;;38.40;28.15;;;15.50;99.90;;;;;;2617063;54;20149;-38
2021/09/28 09:05:56;;;;;;;34.17;26.27;;;15.90;99.90;;;;;;2617004;54;20145;-41
2021/09/28 09:08:26;;;;;;;29.23;25.30;;;16.20;99.90;;;;;;2616495;54;20138;-39
2021/09/28 09:11:07;;;;;;;38.25;28.33;;;16.30;99.90;;;;;;2616328;54;20686;-39
2021/09/28 09:13:38;;;;;;;35.60;25.40;;;16.50;99.90;;;;;;2616770;54;20149;-40
2021/09/28 09:16:10;;;;;;;32.75;26.10;;;16.60;99.90;;;;;;2616613;54;20149;-42
2021/09/28 09:18:39;;;;;;;36.30;24.83;;;16.60;99.90;;;;;;2616206;54;20157;-41
2021/09/28 09:21:10;;;;;;;29.67;23.55;;;16.60;99.90;;;;;;2616356;54;20181;-39
2021/09/28 09:23:43;;;;;;;29.15;24.83;;;16.70;99.90;;;;;;2616613;54;20160;-39
2021/09/28 09:32:48;;;;;;;25.42;19.98;;;17.50;99.90;;;;;;2616302;54;20180;-40
2021/09/28 09:35:26;;;;;;;23.63;20.52;;;17.70;99.90;;;;;;2616702;54;20252;-40
2021/09/28 09:38:07;;;;;;;31.10;22.10;;;17.80;99.90;;;;;;2616016;54;20145;-40
2021/09/28 09:40:38;;;;;;;25.73;20.27;;;17.60;99.90;;;;;;2614755;39;20543;-40
2021/09/28 09:43:11;;;;;;;23.17;19.08;;;17.70;99.90;;;;;;2616471;47;20149;-40
2021/09/28 09:45:40;;;;;;;25.73;20.63;;;17.80;99.90;;;;;;2616148;54;20157;-40
2021/09/28 09:48:24;;;;;;;21.05;16.58;;;18.10;99.90;;;;;;2616184;54;20164;-40
2021/09/28 09:51:05;;;;;;;21.50;15.18;;;18.10;99.90;;;;;;2615718;50;20199;-41
2021/09/28 09:53:34;;;;;;;18.35;16.38;;;18.10;99.90;;;;;;2617138;39;20567;-40
2021/09/28 09:56:02;;;;;;;22.40;17.52;;;18.10;99.90;;;;;;2616967;47;20168;-40
2021/09/28 09:58:34;;;;;;;20.77;16.75;;;18.20;99.90;;;;;;2616296;47;20157;-40
2021/09/28 10:01:03;;;;;;;20.52;15.80;;;18.40;99.90;;;;;;2616157;54;20289;-40
2021/09/28 10:03:32;;;;;;;16.70;15.02;;;18.60;99.90;;;;;;2616767;39;20550;-40
2021/09/28 10:06:02;;;;;;;18.67;16.67;;;18.80;99.90;;;;;;2616587;54;20157;-39
2021/09/28 10:08:33;;;;;;;24.88;18.40;;;19.10;99.90;;;;;;2617007;51;20145;-39
2021/09/28 10:11:03;;;;;;;20.30;17.35;;;18.90;99.90;;;;;;2615899;47;20196;-41
2021/09/28 10:13:51;;;;;;;20.15;15.77;;;18.90;99.90;;;;;;2616087;47;20153;-39
2021/09/28 10:16:52;;;;;;;20.05;15.38;;;19.00;99.90;;;;;;2615554;54;20157;-39
2021/09/28 10:19:46;;;;;;;20.40;16.08;;;19.20;99.90;;;;;;2616099;54;20165;-40
2021/09/28 10:22:48;;;;;;;18.98;14.65;;;19.40;99.90;;;;;;2615534;53;20291;-40
2021/09/28 10:25:50;;;;;;;16.90;15.20;;;19.20;99.90;;;;;;2615884;54;20252;-40
2021/09/28 10:28:33;;;;;;;24.35;14.57;;;19.70;99.90;;;;;;2615372;54;20623;-39
2021/09/28 10:31:11;;;;;;;14.88;12.50;;;20.30;99.90;;;;;;2615878;49;20201;-40
2021/09/28 10:33:40;;;;;;;25.13;14.05;;;20.40;99.90;;;;;;2616033;54;20176;-40
2021/09/28 10:36:13;;;;;;;20.17;13.73;;;20.70;99.90;;;;;;2616695;39;20456;-40
2021/09/28 10:38:53;;;;;;;13.82;10.82;;;22.40;99.90;;;;;;2617150;54;20288;-38
2021/09/28 10:41:41;;;;;;;16.50;11.48;;;22.60;99.90;;;;;;2616532;47;20188;-38
2021/09/28 10:44:47;;;;;;;19.52;11.40;;;22.40;99.90;;;;;;2615763;54;20164;-39
2021/09/28 10:47:49;;;;;;;15.52;11.38;;;21.10;99.90;;;;;;2616258;39;20575;-40
2021/09/28 10:50:33;;;;;;;13.55;11.93;;;20.80;99.90;;;;;;2616590;39;20578;-40
2021/09/28 10:53:04;;;;;;;27.58;11.23;;;21.70;99.90;;;;;;2615591;54;20157;-40
2021/09/28 10:55:41;;;;;;;18.38;11.65;;;22.50;99.90;;;;;;2615971;54;20237;-40
2021/09/28 10:58:18;;;;;;;15.40;11.30;;;22.80;99.90;;;;;;2615750;54;20173;-39
2021/09/28 11:01:12;;;;;;;13.98;9.32;;;22.60;99.90;;;;;;2615097;47;20149;-38
2021/09/28 11:04:06;;;;;;;11.90;10.48;;;22.30;99.90;;;;;;2616188;54;20148;-41
2021/09/28 11:06:58;;;;;;;12.25;10.18;;;22.30;99.90;;;;;;2616628;54;20141;-39
2021/09/28 11:09:45;;;;;;;14.52;10.32;;;21.50;99.90;;;;;;2616357;54;20188;-39
2021/09/28 11:12:14;;;;;;;9.13;8.00;;;21.90;99.90;;;;;;2615775;54;20184;-39
2021/09/28 11:14:43;;;;;;;15.98;10.30;;;22.70;99.90;;;;;;2615847;54;20196;-39
2021/09/28 11:17:18;;;;;;;10.43;7.93;;;22.40;99.90;;;;;;2616282;54;20141;-39
2021/09/28 11:19:48;;;;;;;12.10;8.88;;;22.30;99.90;;;;;;2615741;47;20160;-39
2021/09/28 11:22:24;;;;;;;11.43;7.70;;;22.20;99.90;;;;;;2615870;54;20177;-39
2021/09/28 11:24:53;;;;;;;8.85;7.07;;;22.30;99.90;;;;;;2616203;54;20654;-39
2021/09/28 11:27:22;;;;;;;128.45;83.68;;;22.70;99.90;;;;;;2615947;46;20180;-40
2021/09/28 11:29:51;;;;;;;11.25;9.38;;;23.00;99.90;;;;;;2616344;54;20156;-40
2021/09/28 11:32:20;;;;;;;17.95;13.05;;;22.00;99.90;;;;;;2616008;54;20304;-41
2021/09/28 11:34:49;;;;;;;9.55;6.85;;;21.80;99.90;;;;;;2615750;54;20722;-40
2021/09/28 11:37:18;;;;;;;7.35;6.13;;;22.00;99.90;;;;;;2615859;54;20159;-41
2021/09/28 11:39:50;;;;;;;10.90;6.82;;;21.90;99.90;;;;;;2617154;47;20257;-41
2021/09/28 11:42:18;;;;;;;10.00;6.00;;;21.70;99.90;;;;;;2616668;47;20180;-41
2021/09/28 11:44:53;;;;;;;11.82;7.55;;;21.30;99.90;;;;;;2616641;54;20141;-40
2021/09/28 11:47:25;;;;;;;9.57;6.50;;;21.00;99.90;;;;;;2617177;54;20152;-41
2021/09/28 11:49:57;;;;;;;9.45;6.80;;;20.80;99.90;;;;;;2616862;47;20160;-41
2021/09/28 11:52:27;;;;;;;9.38;6.32;;;20.40;99.90;;;;;;2616682;54;20161;-40
2021/09/28 11:54:59;;;;;;;13.00;5.70;;;20.40;99.90;;;;;;2617219;39;20554;-40
2021/09/28 11:57:28;;;;;;;10.65;6.53;;;20.20;99.90;;;;;;2616761;54;20149;-40
2021/09/28 11:59:57;;;;;;;10.52;6.32;;;20.40;99.90;;;;;;2616906;54;20145;-41
2021/09/28 12:02:26;;;;;;;8.70;6.40;;;20.70;99.90;;;;;;2616700;54;20165;-40
2021/09/28 12:08:00;;;;;;;11.88;5.85;;;20.70;99.90;;;;;;2615754;54;20703;-41
2021/09/28 12:10:39;;;;;;;9.73;6.25;;;20.40;99.90;;;;;;2616657;54;20153;-39
2021/09/28 12:13:25;;;;;;;14.55;7.15;;;20.20;99.90;;;;;;2616590;54;20202;-41
2021/09/28 12:16:12;;;;;;;12.13;7.20;;;19.80;99.90;;;;;;2617162;39;20549;-39
2021/09/28 12:18:42;;;;;;;11.57;6.50;;;19.50;99.90;;;;;;2616429;39;20550;-39
2021/09/28 12:21:13;;;;;;;10.70;6.45;;;19.40;99.90;;;;;;2616796;54;20288;-39
2021/09/28 12:23:42;;;;;;;10.38;7.82;;;19.30;99.90;;;;;;2617105;54;20165;-39
2021/09/28 12:26:30;;;;;;;11.23;7.05;;;19.30;99.90;;;;;;2616387;54;20157;-39
2021/09/28 12:28:59;;;;;;;11.07;7.38;;;19.40;99.90;;;;;;2616731;39;20547;-40
2021/09/28 12:31:38;;;;;;;12.20;6.68;;;19.40;99.90;;;;;;2616527;39;20565;-42
2021/09/28 12:34:10;;;;;;;7.57;5.40;;;19.50;99.90;;;;;;2616460;54;20156;-40
2021/09/28 12:36:39;;;;;;;9.63;6.05;;;19.60;99.90;;;;;;2616376;54;20153;-41
2021/09/28 12:39:16;;;;;;;8.73;5.70;;;19.50;99.90;;;;;;2616528;54;20157;-40
2021/09/28 12:42:09;;;;;;;9.23;5.40;;;19.50;99.90;;;;;;2616387;54;20211;-40
2021/09/28 12:44:40;;;;;;;10.90;5.88;;;19.30;99.90;;;;;;2616525;54;20145;-40
2021/09/28 12:47:33;;;;;;;8.63;5.03;;;19.10;99.90;;;;;;2616781;39;20436;-39
2021/09/28 12:50:22;;;;;;;11.07;5.90;;;19.00;99.90;;;;;;2616177;54;20154;-40
2021/09/28 12:52:52;;;;;;;8.15;6.13;;;19.20;99.90;;;;;;2616524;54;20194;-40
2021/09/28 12:55:21;;;;;;;10.85;5.97;;;19.00;99.90;;;;;;2616815;54;20157;-39
2021/09/28 12:57:54;;;;;;;8.02;5.43;;;18.90;99.90;;;;;;2616331;54;20156;-41
2021/09/28 13:00:24;;;;;;;10.00;6.32;;;19.00;99.90;;;;;;2616510;54;20164;-39
2021/09/28 13:02:54;;;;;;;7.22;5.20;;;19.20;99.90;;;;;;2616568;54;20185;-41
2021/09/28 13:05:25;;;;;;;9.10;5.78;;;19.60;99.90;;;;;;2616428;54;20236;-39
2021/09/28 13:07:55;;;;;;;12.75;4.63;;;19.80;99.90;;;;;;2616106;47;20142;-40
2021/09/28 13:10:24;;;;;;;7.57;4.95;;;20.10;99.90;;;;;;2616453;54;20138;-43
2021/09/28 13:12:56;;;;;;;9.00;5.07;;;20.10;99.90;;;;;;2616827;39;20558;-39
2021/09/28 13:15:25;;;;;;;8.77;5.22;;;20.20;99.90;;;;;;2616575;54;20149;-43
2021/09/28 13:17:54;;;;;;;9.00;4.03;;;20.50;99.90;;;;;;2616330;54;20146;-40
2021/09/28 13:20:24;;;;;;;6.78;4.15;;;20.50;99.90;;;;;;2617291;54;20149;-41
2021/09/28 13:22:53;;;;;;;9.52;4.15;;;20.70;99.90;;;;;;2618483;54;20189;-41
2021/09/28 13:25:22;;;;;;;5.93;4.28;;;20.50;99.90;;;;;;2618394;54;20149;-39
2021/09/28 13:27:51;;;;;;;6.70;4.30;;;20.50;99.90;;;;;;2618554;54;20153;-40
2021/09/28 13:30:23;;;;;;;8.82;3.90;;;20.60;99.90;;;;;;2616790;54;20159;-40
2021/09/28 13:32:52;;;;;;;6.63;4.38;;;20.80;99.90;;;;;;2616728;54;20180;-41
2021/09/28 13:35:20;;;;;;;7.32;4.05;;;21.00;99.90;;;;;;2616798;54;20154;-41